sensor_id;sensor_type;location;lat;lon;timestamp;P1;durP1;ratioP1;P2;durP2;ratioP2
66559;SDS011;53413;49.878;8.142;2022-12-22T00:01:49;4.63;;;1.13;;
66559;SDS011;53413;49.878;8.142;2022-12-22T00:04:34;3.70;;;1.20;;
66559;SDS011;53413;49.878;8.142;2022-12-22T00:07:17;3.00;;;1.00;;
66559;SDS011;53413;49.878;8.142;2022-12-22T00:10:01;4.75;;;1.10;;
66559;SDS011;53413;49.878;8.142;2022-12-22T00:12:46;3.13;;;1.08;;
66559;SDS011;53413;49.878;8.142;2022-12-22T00:15:30;3.35;;;1.13;;
66559;SDS011;53413;49.878;8.142;2022-12-22T00:18:17;4.13;;;1.00;;
66559;SDS011;53413;49.878;8.142;2022-12-22T00:21:01;3.10;;;1.10;;
66559;SDS011;53413;49.878;8.142;2022-12-22T00:23:45;2.90;;;1.10;;
66559;SDS011;53413;49.878;8.142;2022-12-22T00:26:31;3.92;;;0.98;;
66559;SDS011;53413;49.878;8.142;2022-12-22T00:29:17;3.38;;;1.20;;
66559;SDS011;53413;49.878;8.142;2022-12-22T00:32:01;3.47;;;0.90;;
66559;SDS011;53413;49.878;8.142;2022-12-22T00:34:46;3.60;;;1.03;;
66559;SDS011;53413;49.878;8.142;2022-12-22T00:37:35;3.63;;;0.90;;
66559;SDS011;53413;49.878;8.142;2022-12-22T00:40:21;4.45;;;1.10;;
66559;SDS011;53413;49.878;8.142;2022-12-22T00:43:07;3.58;;;0.90;;
66559;SDS011;53413;49.878;8.142;2022-12-22T00:45:51;3.58;;;0.90;;
66559;SDS011;53413;49.878;8.142;2022-12-22T00:48:36;3.03;;;0.80;;
66559;SDS011;53413;49.878;8.142;2022-12-22T00:51:22;4.18;;;0.77;;
66559;SDS011;53413;49.878;8.142;2022-12-22T00:54:09;3.47;;;0.85;;
66559;SDS011;53413;49.878;8.142;2022-12-22T00:56:55;2.95;;;0.80;;
66559;SDS011;53413;49.878;8.142;2022-12-22T00:59:39;3.20;;;0.80;;
66559;SDS011;53413;49.878;8.142;2022-12-22T01:02:24;2.40;;;0.70;;
66559;SDS011;53413;49.878;8.142;2022-12-22T01:05:08;3.20;;;0.70;;
66559;SDS011;53413;49.878;8.142;2022-12-22T01:07:52;2.60;;;0.73;;
66559;SDS011;53413;49.878;8.142;2022-12-22T01:10:37;3.35;;;1.08;;
66559;SDS011;53413;49.878;8.142;2022-12-22T01:13:21;3.17;;;0.77;;
66559;SDS011;53413;49.878;8.142;2022-12-22T01:16:07;2.70;;;0.80;;
66559;SDS011;53413;49.878;8.142;2022-12-22T01:18:53;2.50;;;0.70;;
66559;SDS011;53413;49.878;8.142;2022-12-22T01:21:37;2.90;;;0.80;;
66559;SDS011;53413;49.878;8.142;2022-12-22T01:24:21;2.65;;;0.80;;
66559;SDS011;53413;49.878;8.142;2022-12-22T01:27:06;3.55;;;0.80;;
66559;SDS011;53413;49.878;8.142;2022-12-22T01:29:51;2.93;;;0.80;;
66559;SDS011;53413;49.878;8.142;2022-12-22T01:32:35;2.95;;;0.90;;
66559;SDS011;53413;49.878;8.142;2022-12-22T01:35:20;3.03;;;0.90;;
66559;SDS011;53413;49.878;8.142;2022-12-22T01:38:09;2.70;;;0.80;;
66559;SDS011;53413;49.878;8.142;2022-12-22T01:40:54;2.83;;;0.73;;
66559;SDS011;53413;49.878;8.142;2022-12-22T01:43:40;2.80;;;0.90;;
66559;SDS011;53413;49.878;8.142;2022-12-22T01:46:26;3.47;;;0.85;;
66559;SDS011;53413;49.878;8.142;2022-12-22T01:49:23;3.33;;;0.98;;
66559;SDS011;53413;49.878;8.142;2022-12-22T01:52:11;3.00;;;0.82;;
66559;SDS011;53413;49.878;8.142;2022-12-22T01:55:00;3.80;;;0.80;;
66559;SDS011;53413;49.878;8.142;2022-12-22T01:57:48;2.40;;;0.70;;
66559;SDS011;53413;49.878;8.142;2022-12-22T02:00:32;3.40;;;0.80;;
66559;SDS011;53413;49.878;8.142;2022-12-22T02:03:18;2.60;;;0.70;;
66559;SDS011;53413;49.878;8.142;2022-12-22T02:06:22;2.60;;;0.70;;
66559;SDS011;53413;49.878;8.142;2022-12-22T02:18:10;3.70;;;0.60;;
66559;SDS011;53413;49.878;8.142;2022-12-22T02:21:04;2.35;;;0.70;;
66559;SDS011;53413;49.878;8.142;2022-12-22T02:26:47;2.30;;;0.60;;
66559;SDS011;53413;49.878;8.142;2022-12-22T02:29:35;2.53;;;0.63;;
66559;SDS011;53413;49.878;8.142;2022-12-22T02:32:24;3.13;;;0.75;;
66559;SDS011;53413;49.878;8.142;2022-12-22T02:35:12;3.10;;;0.70;;
66559;SDS011;53413;49.878;8.142;2022-12-22T02:47:19;2.50;;;0.60;;
66559;SDS011;53413;49.878;8.142;2022-12-22T02:50:08;3.30;;;0.80;;
66559;SDS011;53413;49.878;8.142;2022-12-22T02:53:02;2.28;;;0.70;;
66559;SDS011;53413;49.878;8.142;2022-12-22T02:55:48;2.83;;;0.70;;
66559;SDS011;53413;49.878;8.142;2022-12-22T02:58:32;3.33;;;0.80;;
66559;SDS011;53413;49.878;8.142;2022-12-22T03:01:17;3.20;;;0.70;;
66559;SDS011;53413;49.878;8.142;2022-12-22T03:04:01;2.50;;;0.63;;
66559;SDS011;53413;49.878;8.142;2022-12-22T03:06:46;2.90;;;0.73;;
66559;SDS011;53413;49.878;8.142;2022-12-22T03:09:30;2.60;;;0.70;;
66559;SDS011;53413;49.878;8.142;2022-12-22T03:12:14;3.08;;;0.80;;
66559;SDS011;53413;49.878;8.142;2022-12-22T03:14:58;2.70;;;0.80;;
66559;SDS011;53413;49.878;8.142;2022-12-22T03:17:41;3.15;;;0.80;;
66559;SDS011;53413;49.878;8.142;2022-12-22T03:20:25;3.58;;;0.90;;
66559;SDS011;53413;49.878;8.142;2022-12-22T03:23:09;4.97;;;1.00;;
66559;SDS011;53413;49.878;8.142;2022-12-22T03:25:53;4.32;;;1.08;;
66559;SDS011;53413;49.878;8.142;2022-12-22T03:28:19;4.10;;;0.90;;
66559;SDS011;53413;49.878;8.142;2022-12-22T03:30:54;3.42;;;1.10;;
66559;SDS011;53413;49.878;8.142;2022-12-22T03:33:21;4.07;;;1.00;;
66559;SDS011;53413;49.878;8.142;2022-12-22T03:35:46;3.23;;;0.90;;
66559;SDS011;53413;49.878;8.142;2022-12-22T03:38:12;3.33;;;1.02;;
66559;SDS011;53413;49.878;8.142;2022-12-22T03:40:37;3.63;;;1.00;;
66559;SDS011;53413;49.878;8.142;2022-12-22T03:43:02;3.37;;;1.00;;
66559;SDS011;53413;49.878;8.142;2022-12-22T03:45:46;3.80;;;0.90;;
66559;SDS011;53413;49.878;8.142;2022-12-22T03:48:30;4.03;;;0.90;;
66559;SDS011;53413;49.878;8.142;2022-12-22T03:50:55;3.17;;;0.82;;
66559;SDS011;53413;49.878;8.142;2022-12-22T03:53:21;3.85;;;0.70;;
66559;SDS011;53413;49.878;8.142;2022-12-22T03:55:46;3.80;;;1.00;;
66559;SDS011;53413;49.878;8.142;2022-12-22T03:58:11;4.20;;;0.93;;
66559;SDS011;53413;49.878;8.142;2022-12-22T04:00:37;3.30;;;0.87;;
66559;SDS011;53413;49.878;8.142;2022-12-22T04:03:02;4.00;;;0.70;;
66559;SDS011;53413;49.878;8.142;2022-12-22T04:05:27;2.60;;;0.90;;
66559;SDS011;53413;49.878;8.142;2022-12-22T04:07:52;3.10;;;0.90;;
66559;SDS011;53413;49.878;8.142;2022-12-22T04:10:18;3.77;;;1.00;;
66559;SDS011;53413;49.878;8.142;2022-12-22T04:13:02;3.58;;;1.10;;
66559;SDS011;53413;49.878;8.142;2022-12-22T04:15:28;3.37;;;0.97;;
66559;SDS011;53413;49.878;8.142;2022-12-22T04:17:55;3.45;;;1.00;;
66559;SDS011;53413;49.878;8.142;2022-12-22T04:20:22;3.25;;;1.20;;
66559;SDS011;53413;49.878;8.142;2022-12-22T04:22:50;3.58;;;1.00;;
66559;SDS011;53413;49.878;8.142;2022-12-22T04:25:16;3.33;;;1.00;;
66559;SDS011;53413;49.878;8.142;2022-12-22T04:27:41;3.30;;;0.90;;
66559;SDS011;53413;49.878;8.142;2022-12-22T04:30:07;3.33;;;0.90;;
66559;SDS011;53413;49.878;8.142;2022-12-22T04:32:33;4.32;;;0.80;;
66559;SDS011;53413;49.878;8.142;2022-12-22T04:34:58;3.63;;;0.80;;
66559;SDS011;53413;49.878;8.142;2022-12-22T04:37:24;3.50;;;0.90;;
66559;SDS011;53413;49.878;8.142;2022-12-22T04:39:49;2.50;;;0.80;;
66559;SDS011;53413;49.878;8.142;2022-12-22T04:42:15;2.93;;;0.70;;
66559;SDS011;53413;49.878;8.142;2022-12-22T04:44:40;2.90;;;0.70;;
66559;SDS011;53413;49.878;8.142;2022-12-22T04:47:05;2.85;;;0.60;;
66559;SDS011;53413;49.878;8.142;2022-12-22T04:49:31;3.57;;;0.60;;
66559;SDS011;53413;49.878;8.142;2022-12-22T04:51:56;2.50;;;0.60;;
66559;SDS011;53413;49.878;8.142;2022-12-22T04:54:21;2.47;;;0.60;;
66559;SDS011;53413;49.878;8.142;2022-12-22T04:56:47;2.60;;;0.60;;
66559;SDS011;53413;49.878;8.142;2022-12-22T04:59:12;1.70;;;0.47;;
66559;SDS011;53413;49.878;8.142;2022-12-22T05:01:37;2.00;;;0.50;;
66559;SDS011;53413;49.878;8.142;2022-12-22T05:04:03;1.98;;;0.40;;
66559;SDS011;53413;49.878;8.142;2022-12-22T05:06:28;2.40;;;0.50;;
66559;SDS011;53413;49.878;8.142;2022-12-22T05:08:54;2.10;;;0.60;;
66559;SDS011;53413;49.878;8.142;2022-12-22T05:11:19;2.50;;;0.70;;
66559;SDS011;53413;49.878;8.142;2022-12-22T05:13:45;2.10;;;0.60;;
66559;SDS011;53413;49.878;8.142;2022-12-22T05:16:12;1.97;;;0.50;;
66559;SDS011;53413;49.878;8.142;2022-12-22T05:18:39;2.55;;;0.43;;
66559;SDS011;53413;49.878;8.142;2022-12-22T05:21:10;1.90;;;0.43;;
66559;SDS011;53413;49.878;8.142;2022-12-22T05:23:40;1.67;;;0.40;;
66559;SDS011;53413;49.878;8.142;2022-12-22T05:26:06;2.78;;;0.40;;
66559;SDS011;53413;49.878;8.142;2022-12-22T05:28:32;2.33;;;0.55;;
66559;SDS011;53413;49.878;8.142;2022-12-22T05:31:01;2.50;;;0.50;;
66559;SDS011;53413;49.878;8.142;2022-12-22T05:33:32;3.13;;;0.60;;
66559;SDS011;53413;49.878;8.142;2022-12-22T05:35:57;1.83;;;0.50;;
66559;SDS011;53413;49.878;8.142;2022-12-22T05:38:23;2.87;;;0.50;;
66559;SDS011;53413;49.878;8.142;2022-12-22T05:40:48;1.90;;;0.50;;
66559;SDS011;53413;49.878;8.142;2022-12-22T05:43:13;2.30;;;0.47;;
66559;SDS011;53413;49.878;8.142;2022-12-22T05:45:40;2.93;;;0.60;;
66559;SDS011;53413;49.878;8.142;2022-12-22T05:48:06;2.85;;;0.55;;
66559;SDS011;53413;49.878;8.142;2022-12-22T05:50:31;2.27;;;0.60;;
66559;SDS011;53413;49.878;8.142;2022-12-22T05:52:56;2.73;;;0.60;;
66559;SDS011;53413;49.878;8.142;2022-12-22T05:55:22;3.13;;;0.70;;
66559;SDS011;53413;49.878;8.142;2022-12-22T05:57:47;2.20;;;0.60;;
66559;SDS011;53413;49.878;8.142;2022-12-22T06:00:14;3.53;;;0.70;;
66559;SDS011;53413;49.878;8.142;2022-12-22T06:02:41;3.08;;;0.80;;
66559;SDS011;53413;49.878;8.142;2022-12-22T06:05:08;3.07;;;0.60;;
66559;SDS011;53413;49.878;8.142;2022-12-22T06:07:34;2.83;;;0.70;;
66559;SDS011;53413;49.878;8.142;2022-12-22T06:10:00;2.83;;;0.70;;
66559;SDS011;53413;49.878;8.142;2022-12-22T06:12:25;3.43;;;0.70;;
66559;SDS011;53413;49.878;8.142;2022-12-22T06:14:51;3.67;;;0.70;;
66559;SDS011;53413;49.878;8.142;2022-12-22T06:17:17;2.83;;;0.80;;
66559;SDS011;53413;49.878;8.142;2022-12-22T06:19:42;3.90;;;0.70;;
66559;SDS011;53413;49.878;8.142;2022-12-22T06:22:07;4.50;;;1.00;;
66559;SDS011;53413;49.878;8.142;2022-12-22T06:24:33;2.20;;;0.50;;
66559;SDS011;53413;49.878;8.142;2022-12-22T06:26:58;4.03;;;0.70;;
66559;SDS011;53413;49.878;8.142;2022-12-22T06:29:24;2.90;;;0.80;;
66559;SDS011;53413;49.878;8.142;2022-12-22T06:31:49;3.33;;;0.80;;
66559;SDS011;53413;49.878;8.142;2022-12-22T06:34:15;3.53;;;0.70;;
66559;SDS011;53413;49.878;8.142;2022-12-22T06:36:42;3.17;;;0.70;;
66559;SDS011;53413;49.878;8.142;2022-12-22T06:39:10;4.30;;;0.80;;
66559;SDS011;53413;49.878;8.142;2022-12-22T06:41:37;3.43;;;0.80;;
66559;SDS011;53413;49.878;8.142;2022-12-22T06:44:22;3.83;;;0.77;;
66559;SDS011;53413;49.878;8.142;2022-12-22T06:46:47;5.00;;;0.90;;
66559;SDS011;53413;49.878;8.142;2022-12-22T06:49:12;3.60;;;0.85;;
66559;SDS011;53413;49.878;8.142;2022-12-22T06:51:38;3.77;;;0.80;;
66559;SDS011;53413;49.878;8.142;2022-12-22T06:54:03;3.40;;;0.90;;
66559;SDS011;53413;49.878;8.142;2022-12-22T06:56:28;3.73;;;0.80;;
66559;SDS011;53413;49.878;8.142;2022-12-22T06:58:54;6.33;;;0.80;;
66559;SDS011;53413;49.878;8.142;2022-12-22T07:01:19;3.93;;;0.80;;
66559;SDS011;53413;49.878;8.142;2022-12-22T07:03:44;3.87;;;0.80;;
66559;SDS011;53413;49.878;8.142;2022-12-22T07:06:10;4.00;;;0.80;;
66559;SDS011;53413;49.878;8.142;2022-12-22T07:08:35;4.83;;;0.80;;
66559;SDS011;53413;49.878;8.142;2022-12-22T07:11:01;2.67;;;0.60;;
66559;SDS011;53413;49.878;8.142;2022-12-22T07:13:30;3.83;;;0.70;;
66559;SDS011;53413;49.878;8.142;2022-12-22T07:15:58;3.25;;;0.70;;
66559;SDS011;53413;49.878;8.142;2022-12-22T07:18:31;3.65;;;0.70;;
66559;SDS011;53413;49.878;8.142;2022-12-22T07:21:00;2.55;;;0.65;;
66559;SDS011;53413;49.878;8.142;2022-12-22T07:23:27;3.07;;;0.60;;
66559;SDS011;53413;49.878;8.142;2022-12-22T07:25:53;3.05;;;0.40;;
66559;SDS011;53413;49.878;8.142;2022-12-22T07:28:18;1.53;;;0.50;;
66559;SDS011;53413;49.878;8.142;2022-12-22T07:30:43;1.73;;;0.50;;
66559;SDS011;53413;49.878;8.142;2022-12-22T07:33:09;1.65;;;0.40;;
66559;SDS011;53413;49.878;8.142;2022-12-22T07:35:35;2.73;;;0.47;;
66559;SDS011;53413;49.878;8.142;2022-12-22T07:38:00;1.80;;;0.45;;
66559;SDS011;53413;49.878;8.142;2022-12-22T07:40:25;3.40;;;0.60;;
66559;SDS011;53413;49.878;8.142;2022-12-22T07:42:55;3.73;;;0.50;;
66559;SDS011;53413;49.878;8.142;2022-12-22T07:45:21;3.70;;;0.60;;
66559;SDS011;53413;49.878;8.142;2022-12-22T07:47:46;2.67;;;0.60;;
66559;SDS011;53413;49.878;8.142;2022-12-22T07:50:14;3.47;;;0.60;;
66559;SDS011;53413;49.878;8.142;2022-12-22T07:52:57;4.40;;;0.80;;
66559;SDS011;53413;49.878;8.142;2022-12-22T07:55:24;3.03;;;0.70;;
66559;SDS011;53413;49.878;8.142;2022-12-22T07:57:51;3.85;;;0.70;;
66559;SDS011;53413;49.878;8.142;2022-12-22T08:00:17;3.60;;;0.80;;
66559;SDS011;53413;49.878;8.142;2022-12-22T08:02:50;3.33;;;0.60;;
66559;SDS011;53413;49.878;8.142;2022-12-22T08:05:21;4.28;;;0.70;;
66559;SDS011;53413;49.878;8.142;2022-12-22T08:07:48;4.20;;;0.60;;
66559;SDS011;53413;49.878;8.142;2022-12-22T08:10:14;3.72;;;0.70;;
66559;SDS011;53413;49.878;8.142;2022-12-22T08:12:40;4.93;;;0.70;;
66559;SDS011;53413;49.878;8.142;2022-12-22T08:15:06;4.60;;;0.90;;
66559;SDS011;53413;49.878;8.142;2022-12-22T08:17:32;5.28;;;0.90;;
66559;SDS011;53413;49.878;8.142;2022-12-22T08:19:58;5.05;;;0.90;;
66559;SDS011;53413;49.878;8.142;2022-12-22T08:22:24;6.30;;;1.00;;
66559;SDS011;53413;49.878;8.142;2022-12-22T08:24:50;5.73;;;1.10;;
66559;SDS011;53413;49.878;8.142;2022-12-22T08:27:16;6.95;;;1.23;;
66559;SDS011;53413;49.878;8.142;2022-12-22T08:29:46;6.97;;;1.27;;
66559;SDS011;53413;49.878;8.142;2022-12-22T08:32:16;8.00;;;0.90;;
66559;SDS011;53413;49.878;8.142;2022-12-22T08:34:42;9.03;;;1.13;;
66559;SDS011;53413;49.878;8.142;2022-12-22T08:37:09;4.67;;;1.10;;
66559;SDS011;53413;49.878;8.142;2022-12-22T08:39:38;7.40;;;1.10;;
66559;SDS011;53413;49.878;8.142;2022-12-22T08:42:06;6.93;;;1.30;;
66559;SDS011;53413;49.878;8.142;2022-12-22T08:44:35;6.45;;;1.10;;
66559;SDS011;53413;49.878;8.142;2022-12-22T08:47:03;4.73;;;0.80;;
66559;SDS011;53413;49.878;8.142;2022-12-22T08:49:30;7.68;;;1.00;;
66559;SDS011;53413;49.878;8.142;2022-12-22T08:51:55;6.90;;;1.42;;
66559;SDS011;53413;49.878;8.142;2022-12-22T08:54:21;6.25;;;1.00;;
66559;SDS011;53413;49.878;8.142;2022-12-22T08:56:47;5.32;;;1.20;;
66559;SDS011;53413;49.878;8.142;2022-12-22T08:59:13;7.63;;;1.27;;
66559;SDS011;53413;49.878;8.142;2022-12-22T09:01:40;5.63;;;1.03;;
66559;SDS011;53413;49.878;8.142;2022-12-22T09:04:08;7.38;;;0.95;;
66559;SDS011;53413;49.878;8.142;2022-12-22T09:06:36;4.75;;;0.90;;
66559;SDS011;53413;49.878;8.142;2022-12-22T09:09:19;5.63;;;1.03;;
66559;SDS011;53413;49.878;8.142;2022-12-22T09:11:52;5.38;;;0.90;;
66559;SDS011;53413;49.878;8.142;2022-12-22T09:14:17;4.53;;;0.90;;
66559;SDS011;53413;49.878;8.142;2022-12-22T09:16:43;4.57;;;0.83;;
66559;SDS011;53413;49.878;8.142;2022-12-22T09:19:08;4.60;;;0.75;;
66559;SDS011;53413;49.878;8.142;2022-12-22T09:21:36;5.23;;;0.80;;
66559;SDS011;53413;49.878;8.142;2022-12-22T09:24:02;3.58;;;0.70;;
66559;SDS011;53413;49.878;8.142;2022-12-22T09:26:31;4.07;;;0.65;;
66559;SDS011;53413;49.878;8.142;2022-12-22T09:28:57;3.93;;;0.83;;
66559;SDS011;53413;49.878;8.142;2022-12-22T09:31:22;4.07;;;1.10;;
66559;SDS011;53413;49.878;8.142;2022-12-22T09:33:49;4.93;;;0.80;;
66559;SDS011;53413;49.878;8.142;2022-12-22T09:36:16;4.40;;;0.70;;
66559;SDS011;53413;49.878;8.142;2022-12-22T09:38:43;4.95;;;0.70;;
66559;SDS011;53413;49.878;8.142;2022-12-22T09:44:03;3.90;;;0.60;;
66559;SDS011;53413;49.878;8.142;2022-12-22T09:46:31;4.25;;;0.90;;
66559;SDS011;53413;49.878;8.142;2022-12-22T09:48:59;4.82;;;1.27;;
66559;SDS011;53413;49.878;8.142;2022-12-22T09:51:24;5.90;;;1.27;;
66559;SDS011;53413;49.878;8.142;2022-12-22T09:53:51;6.03;;;1.20;;
66559;SDS011;53413;49.878;8.142;2022-12-22T09:56:20;5.22;;;0.80;;
66559;SDS011;53413;49.878;8.142;2022-12-22T09:58:48;4.33;;;0.80;;
66559;SDS011;53413;49.878;8.142;2022-12-22T10:07:01;5.50;;;0.97;;
66559;SDS011;53413;49.878;8.142;2022-12-22T10:09:48;3.47;;;0.80;;
66559;SDS011;53413;49.878;8.142;2022-12-22T10:12:14;3.60;;;0.70;;
66559;SDS011;53413;49.878;8.142;2022-12-22T10:14:42;3.85;;;0.60;;
66559;SDS011;53413;49.878;8.142;2022-12-22T10:17:26;4.38;;;0.90;;
66559;SDS011;53413;49.878;8.142;2022-12-22T10:22:50;3.27;;;0.53;;
66559;SDS011;53413;49.878;8.142;2022-12-22T10:25:41;3.70;;;0.60;;
66559;SDS011;53413;49.878;8.142;2022-12-22T10:28:24;3.40;;;0.63;;
66559;SDS011;53413;49.878;8.142;2022-12-22T10:31:09;3.50;;;0.55;;
66559;SDS011;53413;49.878;8.142;2022-12-22T10:33:35;3.35;;;0.80;;
66559;SDS011;53413;49.878;8.142;2022-12-22T10:36:00;2.10;;;0.60;;
66559;SDS011;53413;49.878;8.142;2022-12-22T10:38:29;3.23;;;1.20;;
66559;SDS011;53413;49.878;8.142;2022-12-22T10:41:02;3.05;;;0.70;;
66559;SDS011;53413;49.878;8.142;2022-12-22T10:43:37;3.13;;;0.95;;
66559;SDS011;53413;49.878;8.142;2022-12-22T10:46:09;3.60;;;0.70;;
66559;SDS011;53413;49.878;8.142;2022-12-22T10:48:36;3.00;;;0.60;;
66559;SDS011;53413;49.878;8.142;2022-12-22T10:51:04;3.78;;;1.30;;
66559;SDS011;53413;49.878;8.142;2022-12-22T10:53:47;2.72;;;0.90;;
66559;SDS011;53413;49.878;8.142;2022-12-22T10:56:18;4.00;;;0.90;;
66559;SDS011;53413;49.878;8.142;2022-12-22T10:59:12;2.88;;;0.95;;
66559;SDS011;53413;49.878;8.142;2022-12-22T11:02:41;3.65;;;1.00;;
66559;SDS011;53413;49.878;8.142;2022-12-22T11:05:18;3.10;;;0.80;;
66559;SDS011;53413;49.878;8.142;2022-12-22T11:07:45;3.90;;;1.08;;
66559;SDS011;53413;49.878;8.142;2022-12-22T11:10:15;2.25;;;0.60;;
66559;SDS011;53413;49.878;8.142;2022-12-22T11:20:50;3.13;;;0.70;;
66559;SDS011;53413;49.878;8.142;2022-12-22T11:39:18;2.00;;;0.50;;
66559;SDS011;53413;49.878;8.142;2022-12-22T11:50:03;2.20;;;0.70;;
66559;SDS011;53413;49.878;8.142;2022-12-22T11:55:27;1.60;;;0.40;;
66559;SDS011;53413;49.878;8.142;2022-12-22T12:00:20;2.67;;;0.90;;
66559;SDS011;53413;49.878;8.142;2022-12-22T12:05:47;2.20;;;0.60;;
66559;SDS011;53413;49.878;8.142;2022-12-22T12:14:19;2.45;;;0.80;;
66559;SDS011;53413;49.878;8.142;2022-12-22T12:28:11;1.88;;;0.50;;
66559;SDS011;53413;49.878;8.142;2022-12-22T12:30:51;1.50;;;0.40;;
66559;SDS011;53413;49.878;8.142;2022-12-22T12:35:59;2.25;;;0.63;;
66559;SDS011;53413;49.878;8.142;2022-12-22T12:44:09;3.33;;;1.60;;
66559;SDS011;53413;49.878;8.142;2022-12-22T12:52:00;4.80;;;2.50;;
66559;SDS011;53413;49.878;8.142;2022-12-22T12:57:09;3.00;;;1.20;;
66559;SDS011;53413;49.878;8.142;2022-12-22T12:59:45;3.38;;;1.50;;
66559;SDS011;53413;49.878;8.142;2022-12-22T13:05:03;5.07;;;1.90;;
66559;SDS011;53413;49.878;8.142;2022-12-22T13:10:30;3.33;;;1.52;;
66559;SDS011;53413;49.878;8.142;2022-12-22T13:12:58;4.50;;;1.60;;
66559;SDS011;53413;49.878;8.142;2022-12-22T13:15:39;3.40;;;1.20;;
66559;SDS011;53413;49.878;8.142;2022-12-22T13:23:27;2.47;;;0.80;;
66559;SDS011;53413;49.878;8.142;2022-12-22T13:26:01;2.63;;;0.90;;
66559;SDS011;53413;49.878;8.142;2022-12-22T13:29:38;4.47;;;1.98;;
66559;SDS011;53413;49.878;8.142;2022-12-22T13:31:42;2.97;;;1.10;;
66559;SDS011;53413;49.878;8.142;2022-12-22T13:39:36;5.15;;;1.90;;
66559;SDS011;53413;49.878;8.142;2022-12-22T13:42:02;6.17;;;3.23;;
66559;SDS011;53413;49.878;8.142;2022-12-22T13:44:30;3.53;;;1.23;;
66559;SDS011;53413;49.878;8.142;2022-12-22T13:47:04;3.20;;;1.30;;
66559;SDS011;53413;49.878;8.142;2022-12-22T13:49:34;3.40;;;1.38;;
66559;SDS011;53413;49.878;8.142;2022-12-22T13:52:00;3.20;;;1.00;;
66559;SDS011;53413;49.878;8.142;2022-12-22T13:54:29;3.20;;;1.20;;
66559;SDS011;53413;49.878;8.142;2022-12-22T13:56:57;3.10;;;1.27;;
66559;SDS011;53413;49.878;8.142;2022-12-22T14:04:37;3.00;;;1.20;;
66559;SDS011;53413;49.878;8.142;2022-12-22T14:07:16;3.10;;;1.25;;
66559;SDS011;53413;49.878;8.142;2022-12-22T14:09:54;3.28;;;1.30;;
66559;SDS011;53413;49.878;8.142;2022-12-22T14:12:21;3.25;;;1.30;;
66559;SDS011;53413;49.878;8.142;2022-12-22T14:14:48;2.83;;;1.13;;
66559;SDS011;53413;49.878;8.142;2022-12-22T14:19:53;4.25;;;1.38;;
66559;SDS011;53413;49.878;8.142;2022-12-22T14:22:21;3.03;;;1.17;;
66559;SDS011;53413;49.878;8.142;2022-12-22T14:25:17;2.60;;;0.80;;
66559;SDS011;53413;49.878;8.142;2022-12-22T14:27:50;2.80;;;1.20;;
66559;SDS011;53413;49.878;8.142;2022-12-22T14:30:19;2.38;;;0.80;;
66559;SDS011;53413;49.878;8.142;2022-12-22T14:32:51;3.78;;;1.60;;
66559;SDS011;53413;49.878;8.142;2022-12-22T14:37:50;4.20;;;2.10;;
66559;SDS011;53413;49.878;8.142;2022-12-22T14:43:12;3.65;;;1.40;;
66559;SDS011;53413;49.878;8.142;2022-12-22T14:45:44;2.63;;;1.00;;
66559;SDS011;53413;49.878;8.142;2022-12-22T14:48:16;3.05;;;1.10;;
66559;SDS011;53413;49.878;8.142;2022-12-22T14:50:48;2.95;;;1.17;;
66559;SDS011;53413;49.878;8.142;2022-12-22T14:53:20;3.50;;;1.40;;
66559;SDS011;53413;49.878;8.142;2022-12-22T14:55:48;4.05;;;1.67;;
66559;SDS011;53413;49.878;8.142;2022-12-22T14:58:16;3.30;;;1.50;;
66559;SDS011;53413;49.878;8.142;2022-12-22T15:00:46;3.20;;;1.10;;
66559;SDS011;53413;49.878;8.142;2022-12-22T15:05:56;4.43;;;2.42;;
66559;SDS011;53413;49.878;8.142;2022-12-22T15:08:51;3.55;;;1.70;;
66559;SDS011;53413;49.878;8.142;2022-12-22T15:11:38;3.13;;;1.20;;
66559;SDS011;53413;49.878;8.142;2022-12-22T15:14:11;3.10;;;1.30;;
66559;SDS011;53413;49.878;8.142;2022-12-22T15:16:40;3.20;;;1.40;;
66559;SDS011;53413;49.878;8.142;2022-12-22T15:19:06;3.80;;;1.60;;
66559;SDS011;53413;49.878;8.142;2022-12-22T15:21:32;3.27;;;1.40;;
66559;SDS011;53413;49.878;8.142;2022-12-22T15:23:59;5.35;;;3.25;;
66559;SDS011;53413;49.878;8.142;2022-12-22T15:26:25;7.80;;;4.63;;
66559;SDS011;53413;49.878;8.142;2022-12-22T15:28:50;5.00;;;2.97;;
66559;SDS011;53413;49.878;8.142;2022-12-22T15:31:16;4.40;;;2.20;;
66559;SDS011;53413;49.878;8.142;2022-12-22T15:33:42;3.83;;;1.65;;
66559;SDS011;53413;49.878;8.142;2022-12-22T15:36:09;5.10;;;3.07;;
66559;SDS011;53413;49.878;8.142;2022-12-22T15:38:36;4.60;;;2.60;;
66559;SDS011;53413;49.878;8.142;2022-12-22T15:41:03;7.78;;;4.95;;
66559;SDS011;53413;49.878;8.142;2022-12-22T15:43:28;6.67;;;3.97;;
66559;SDS011;53413;49.878;8.142;2022-12-22T15:45:54;3.45;;;1.27;;
66559;SDS011;53413;49.878;8.142;2022-12-22T15:48:24;3.03;;;1.05;;
66559;SDS011;53413;49.878;8.142;2022-12-22T15:50:53;3.75;;;1.70;;
66559;SDS011;53413;49.878;8.142;2022-12-22T15:53:20;3.50;;;1.15;;
66559;SDS011;53413;49.878;8.142;2022-12-22T15:55:49;3.27;;;1.10;;
66559;SDS011;53413;49.878;8.142;2022-12-22T15:58:17;3.22;;;1.00;;
66559;SDS011;53413;49.878;8.142;2022-12-22T16:00:45;3.10;;;0.93;;
66559;SDS011;53413;49.878;8.142;2022-12-22T16:03:10;3.03;;;1.00;;
66559;SDS011;53413;49.878;8.142;2022-12-22T16:05:37;3.60;;;1.20;;
66559;SDS011;53413;49.878;8.142;2022-12-22T16:08:03;3.47;;;1.20;;
66559;SDS011;53413;49.878;8.142;2022-12-22T16:10:33;3.72;;;1.25;;
66559;SDS011;53413;49.878;8.142;2022-12-22T16:12:59;3.17;;;1.10;;
66559;SDS011;53413;49.878;8.142;2022-12-22T16:15:28;4.10;;;1.60;;
66559;SDS011;53413;49.878;8.142;2022-12-22T16:17:56;4.00;;;1.20;;
66559;SDS011;53413;49.878;8.142;2022-12-22T16:20:22;3.67;;;1.60;;
66559;SDS011;53413;49.878;8.142;2022-12-22T16:22:49;4.20;;;2.10;;
66559;SDS011;53413;49.878;8.142;2022-12-22T16:25:17;3.83;;;1.90;;
66559;SDS011;53413;49.878;8.142;2022-12-22T16:27:45;3.35;;;1.60;;
66559;SDS011;53413;49.878;8.142;2022-12-22T16:30:17;6.38;;;3.85;;
66559;SDS011;53413;49.878;8.142;2022-12-22T16:32:44;5.25;;;3.10;;
66559;SDS011;53413;49.878;8.142;2022-12-22T16:37:36;4.35;;;2.22;;
66559;SDS011;53413;49.878;8.142;2022-12-22T16:40:03;4.23;;;2.07;;
66559;SDS011;53413;49.878;8.142;2022-12-22T16:42:28;3.53;;;1.50;;
66559;SDS011;53413;49.878;8.142;2022-12-22T16:44:55;12.18;;;6.93;;
66559;SDS011;53413;49.878;8.142;2022-12-22T16:47:21;5.50;;;2.80;;
66559;SDS011;53413;49.878;8.142;2022-12-22T16:49:50;8.52;;;4.32;;
66559;SDS011;53413;49.878;8.142;2022-12-22T16:52:17;5.32;;;2.60;;
66559;SDS011;53413;49.878;8.142;2022-12-22T16:54:44;3.80;;;1.60;;
66559;SDS011;53413;49.878;8.142;2022-12-22T16:57:10;6.38;;;2.10;;
66559;SDS011;53413;49.878;8.142;2022-12-22T16:59:35;4.10;;;1.90;;
66559;SDS011;53413;49.878;8.142;2022-12-22T17:02:01;6.10;;;1.83;;
66559;SDS011;53413;49.878;8.142;2022-12-22T17:04:27;8.35;;;2.35;;
66559;SDS011;53413;49.878;8.142;2022-12-22T17:06:54;6.78;;;3.40;;
66559;SDS011;53413;49.878;8.142;2022-12-22T17:09:26;8.32;;;3.28;;
66559;SDS011;53413;49.878;8.142;2022-12-22T17:11:57;6.22;;;2.10;;
66559;SDS011;53413;49.878;8.142;2022-12-22T17:14:30;8.27;;;2.20;;
66559;SDS011;53413;49.878;8.142;2022-12-22T17:16:58;6.68;;;2.00;;
66559;SDS011;53413;49.878;8.142;2022-12-22T17:19:24;8.07;;;2.70;;
66559;SDS011;53413;49.878;8.142;2022-12-22T17:21:50;11.60;;;4.00;;
66559;SDS011;53413;49.878;8.142;2022-12-22T17:24:17;7.63;;;2.67;;
66559;SDS011;53413;49.878;8.142;2022-12-22T17:26:44;12.32;;;3.28;;
66559;SDS011;53413;49.878;8.142;2022-12-22T17:29:13;9.10;;;2.60;;
66559;SDS011;53413;49.878;8.142;2022-12-22T17:31:40;11.52;;;2.47;;
66559;SDS011;53413;49.878;8.142;2022-12-22T17:34:16;11.17;;;2.20;;
66559;SDS011;53413;49.878;8.142;2022-12-22T17:36:43;12.82;;;3.83;;
66559;SDS011;53413;49.878;8.142;2022-12-22T17:39:14;10.82;;;2.50;;